Time;durP1;ratioP1;P1;durP2;ratioP2;P2;SDS_P1;SDS_P2;PMS_P1;PMS_P2;Temp;Humidity;BMP_temperature;BMP_pressure;BME280_temperature;BME280_humidity;BME280_pressure;Samples;Min_cycle;Max_cycle;Signal;HPM_P1;HPM_P2
2022/12/29 05:32:26;;;;;;;;;0.00;0.00;;;;;12.06;100.00;100416.16;6239366;22;46693;-59
2022/12/29 05:34:51;;;;;;;;;2.00;1.00;;;;;12.02;100.00;100419.97;6217161;22;45712;-59
2022/12/29 05:37:17;;;;;;;;;4.00;1.00;;;;;12.02;100.00;100435.06;6244670;22;57796;-60
2022/12/29 05:39:42;;;;;;;;;3.00;0.00;;;;;11.99;100.00;100422.78;6245076;22;45421;-60
2022/12/29 05:42:09;;;;;;;;;0.33;0.00;;;;;11.96;100.00;100430.16;6243390;22;46359;-59
2022/12/29 05:44:34;;;;;;;;;4.00;1.00;;;;;11.94;100.00;100432.84;6244740;22;45721;-60
2022/12/29 05:46:59;;;;;;;;;3.00;1.00;;;;;11.92;100.00;100426.78;6243251;22;54303;-60
2022/12/29 05:49:25;;;;;;;;;1.67;1.00;;;;;11.92;100.00;100418.78;6245018;22;45340;-60
2022/12/29 05:51:50;;;;;;;;;1.00;0.00;;;;;11.91;100.00;100430.38;6243848;22;62652;-60
2022/12/29 05:54:16;;;;;;;;;1.67;1.00;;;;;11.90;100.00;100437.53;6246086;22;61941;-61
2022/12/29 05:56:41;;;;;;;;;0.33;0.33;;;;;11.90;100.00;100429.53;6246303;22;45271;-62
2022/12/29 05:59:07;;;;;;;;;2.00;1.00;;;;;11.91;100.00;100438.38;6246565;22;45316;-60
2022/12/29 06:01:34;;;;;;;;;4.33;1.00;;;;;11.95;100.00;100444.38;6245218;22;45371;-60
2022/12/29 06:03:59;;;;;;;;;3.00;1.00;;;;;11.95;100.00;100437.28;6245076;22;45384;-60
2022/12/29 06:06:24;;;;;;;;;1.00;1.00;;;;;11.97;100.00;100442.50;6246405;22;45375;-60
2022/12/29 06:08:50;;;;;;;;;4.00;1.00;;;;;11.98;100.00;100447.75;6244646;22;58846;-60
2022/12/29 06:11:15;;;;;;;;;4.00;1.00;;;;;11.97;100.00;100435.38;6244866;22;62443;-61
2022/12/29 06:13:40;;;;;;;;;0.33;0.33;;;;;11.97;100.00;100455.81;6245351;22;45348;-60
2022/12/29 06:16:06;;;;;;;;;2.00;0.00;;;;;11.94;100.00;100451.50;6245645;22;45750;-61
2022/12/29 06:18:31;;;;;;;;;2.00;0.33;;;;;11.93;100.00;100460.47;6245777;22;45399;-60
2022/12/29 06:21:01;;;;;;;;;2.33;0.00;;;;;11.91;100.00;100467.69;6245318;22;59241;-60
2022/12/29 06:23:27;;;;;;;;;2.67;1.00;;;;;11.88;99.41;100474.06;6246051;22;45310;-60
2022/12/29 06:25:52;;;;;;;;;1.00;1.00;;;;;11.84;100.00;100480.53;6245698;22;45512;-61
2022/12/29 06:28:17;;;;;;;;;1.00;0.00;;;;;11.82;99.39;100482.44;6246358;22;45351;-60
2022/12/29 06:30:45;;;;;;;;;1.00;1.00;;;;;11.79;100.00;100482.63;6244325;22;65040;-60
2022/12/29 06:33:10;;;;;;;;;0.00;0.00;;;;;11.78;100.00;100488.06;6218608;22;45331;-60
2022/12/29 06:35:36;;;;;;;;;1.33;1.33;;;;;11.79;100.00;100489.78;6246276;22;45395;-60
2022/12/29 06:38:02;;;;;;;;;1.00;1.00;;;;;11.78;100.00;100488.06;6245309;22;52708;-60
2022/12/29 06:40:27;;;;;;;;;0.33;0.33;;;;;11.76;100.00;100498.81;6245698;22;45984;-60
2022/12/29 06:42:52;;;;;;;;;2.33;0.33;;;;;11.73;100.00;100513.16;6243959;22;63126;-60
2022/12/29 06:45:18;;;;;;;;;2.00;0.00;;;;;11.70;100.00;100502.69;6245457;22;61371;-60
2022/12/29 06:47:43;;;;;;;;;3.33;0.00;;;;;11.71;100.00;100515.06;6244347;22;61042;-60
2022/12/29 06:50:08;;;;;;;;;2.00;1.00;;;;;11.74;100.00;100516.69;6245061;22;66223;-60
2022/12/29 06:52:34;;;;;;;;;2.67;1.00;;;;;11.77;100.00;100526.28;6244616;22;63129;-60
2022/12/29 06:54:59;;;;;;;;;0.00;0.00;;;;;11.80;100.00;100526.97;6245830;22;45357;-61
2022/12/29 06:57:26;;;;;;;;;2.00;0.67;;;;;11.91;100.00;100531.66;6245083;22;45276;-60
2022/12/29 06:59:51;;;;;;;;;0.67;0.67;;;;;11.86;100.00;100531.06;6245499;22;46266;-60
2022/12/29 07:02:19;;;;;;;;;1.33;1.00;;;;;11.88;99.45;100524.72;6244733;22;45293;-60
2022/12/29 07:04:44;;;;;;;;;1.00;1.00;;;;;11.87;100.00;100520.31;6244591;22;45430;-59
2022/12/29 07:07:10;;;;;;;;;0.00;0.00;;;;;11.87;99.67;100522.13;6246411;22;45448;-58
2022/12/29 07:09:35;;;;;;;;;0.00;0.00;;;;;11.87;98.91;100530.97;6245886;22;45229;-58
2022/12/29 07:12:01;;;;;;;;;0.00;0.00;;;;;11.88;97.57;100534.53;6218900;22;45359;-60
2022/12/29 07:14:26;;;;;;;;;1.67;0.00;;;;;11.84;100.00;100533.84;6219158;22;45439;-58
2022/12/29 07:16:52;;;;;;;;;5.00;1.00;;;;;11.82;96.14;100534.88;6243789;22;45590;-59
2022/12/29 07:19:17;;;;;;;;;2.00;2.00;;;;;11.78;99.01;100528.03;6217967;22;46886;-59
2022/12/29 07:21:42;;;;;;;;;2.00;1.00;;;;;11.77;97.38;100526.28;6244802;22;45210;-59
2022/12/29 07:24:09;;;;;;;;;0.67;0.00;;;;;11.73;99.84;100528.28;6245217;22;56842;-59
2022/12/29 07:26:36;;;;;;;;;4.00;0.00;;;;;11.71;95.95;100538.19;6246148;22;45366;-58
2022/12/29 07:29:01;;;;;;;;;1.67;1.00;;;;;11.70;99.03;100539.97;6244740;22;46050;-59
2022/12/29 07:31:26;;;;;;;;;0.00;0.00;;;;;11.70;98.57;100539.97;6244586;22;45610;-59
2022/12/29 07:33:52;;;;;;;;;2.00;0.00;;;;;11.70;98.60;100542.63;6245601;22;45579;-58
2022/12/29 07:36:17;;;;;;;;;1.33;0.67;;;;;11.72;99.50;100537.22;6245923;22;45334;-59
2022/12/29 07:38:43;;;;;;;;;2.00;2.00;;;;;11.73;98.86;100547.81;6244949;22;46176;-59
2022/12/29 07:41:08;;;;;;;;;2.00;0.33;;;;;11.75;100.00;100559.22;6218905;22;45372;-60
2022/12/29 07:43:34;;;;;;;;;3.67;1.00;;;;;11.74;98.38;100570.81;6246055;22;45407;-60
2022/12/29 07:45:59;;;;;;;;;2.00;1.00;;;;;11.77;98.79;100569.78;6246046;22;45265;-60
2022/12/29 07:48:24;;;;;;;;;1.33;0.33;;;;;11.77;99.17;100572.44;6244524;22;66659;-60
2022/12/29 07:50:50;;;;;;;;;1.00;1.00;;;;;11.74;99.80;100584.13;6244711;22;61007;-60
2022/12/29 07:53:16;;;;;;;;;2.00;0.00;;;;;11.74;98.46;100584.13;6246080;22;45442;-60
2022/12/29 07:55:41;;;;;;;;;1.67;0.33;;;;;11.71;98.11;100597.66;6246285;22;45566;-60
2022/12/29 07:58:07;;;;;;;;;1.67;1.00;;;;;11.71;98.24;100596.81;6192346;22;46718;-59
2022/12/29 08:00:32;;;;;;;;;3.00;0.00;;;;;11.70;96.92;100601.25;6245169;22;49724;-60
2022/12/29 08:02:57;;;;;;;;;3.33;0.00;;;;;11.75;99.49;100615.16;6245349;22;45469;-60
2022/12/29 08:05:23;;;;;;;;;0.33;0.33;;;;;11.74;99.75;100604.59;6218848;22;45252;-59
2022/12/29 08:07:48;;;;;;;;;1.67;1.00;;;;;11.75;98.77;100615.16;6244889;22;57090;-58
2022/12/29 08:10:14;;;;;;;;;1.33;1.00;;;;;11.77;99.60;100616.91;6244846;22;64696;-59
2022/12/29 08:12:40;;;;;;;;;4.00;0.00;;;;;11.77;99.10;100615.06;6218435;22;45342;-58
2022/12/29 08:15:07;;;;;;;;;3.67;1.00;;;;;11.77;99.85;100631.06;6245130;22;45280;-59
2022/12/29 08:17:32;;;;;;;;;1.00;0.00;;;;;11.79;98.65;100634.50;6245010;22;46356;-59
2022/12/29 08:19:58;;;;;;;;;2.00;0.00;;;;;11.79;97.92;100626.53;6245638;22;45638;-59
2022/12/29 08:22:24;;;;;;;;;3.00;1.00;;;;;11.82;98.31;100630.81;6217582;22;45724;-59
2022/12/29 08:24:49;;;;;;;;;5.00;1.67;;;;;11.84;97.62;100629.78;6216945;22;45723;-59
2022/12/29 08:27:15;;;;;;;;;3.00;1.00;;;;;11.87;98.69;100631.41;6244316;22;45884;-58
2022/12/29 08:29:40;;;;;;;;;2.00;0.00;;;;;11.87;97.13;100629.59;6244129;22;45353;-59
2022/12/29 08:32:06;;;;;;;;;1.00;1.00;;;;;11.87;96.69;100636.75;6243500;22;56390;-59
2022/12/29 08:34:32;;;;;;;;;0.33;0.00;;;;;11.87;97.23;100650.91;6242494;22;45820;-59
2022/12/29 08:36:57;;;;;;;;;1.00;1.00;;;;;11.88;97.79;100641.13;6215585;22;47199;-58
2022/12/29 08:39:22;;;;;;;;;1.00;1.00;;;;;11.90;95.27;100652.53;6245334;22;45634;-58
2022/12/29 08:41:48;;;;;;;;;3.00;1.00;;;;;11.90;96.79;100656.09;6245637;22;45270;-59
2022/12/29 08:44:13;;;;;;;;;1.00;1.00;;;;;11.91;94.38;100659.59;6245213;22;57138;-59
2022/12/29 08:46:39;;;;;;;;;3.00;0.00;;;;;11.92;96.85;100663.97;6244948;22;56314;-59
2022/12/29 08:49:04;;;;;;;;;4.00;1.00;;;;;11.96;95.39;100662.03;6245282;22;45345;-59
2022/12/29 08:51:29;;;;;;;;;7.33;1.00;;;;;11.98;96.73;100661.00;6217592;22;56510;-59
2022/12/29 08:53:55;;;;;;;;;2.00;1.00;;;;;12.02;95.46;100672.31;6245114;22;45465;-59
2022/12/29 08:56:20;;;;;;;;;4.00;3.00;;;;;12.06;96.17;100676.56;6217752;22;59897;-59
2022/12/29 08:58:46;;;;;;;;;4.33;2.00;;;;;12.11;95.95;100681.59;6245011;22;45202;-59
2022/12/29 09:01:11;;;;;;;;;0.00;0.00;;;;;12.68;92.94;100681.75;6245355;22;45333;-59
2022/12/29 09:03:36;;;;;;;;;1.67;1.00;;;;;12.31;93.83;100688.44;6218401;22;45316;-59
2022/12/29 09:06:02;;;;;;;;;5.33;2.33;;;;;12.31;95.48;100681.28;6244075;22;46061;-59
2022/12/29 09:08:27;;;;;;;;;3.00;1.00;;;;;12.37;95.46;100690.72;6217691;22;45417;-60
2022/12/29 09:10:53;;;;;;;;;3.33;1.00;;;;;12.47;94.51;100696.38;6243902;22;45373;-60
2022/12/29 09:13:18;;;;;;;;;3.67;2.67;;;;;12.56;95.09;100694.00;6243964;22;45935;-60
2022/12/29 09:15:44;;;;;;;;;4.00;1.00;;;;;12.67;93.82;100690.72;6240290;22;45538;-60
2022/12/29 09:18:11;;;;;;;;;2.00;2.00;;;;;12.73;92.36;100679.66;6242665;22;45408;-60
2022/12/29 09:20:36;;;;;;;;;3.33;1.00;;;;;12.78;92.40;100690.06;6217665;22;45289;-60
2022/12/29 09:23:02;;;;;;;;;4.00;2.00;;;;;12.81;92.35;100695.19;6244488;22;45339;-60
2022/12/29 09:25:28;;;;;;;;;3.00;2.00;;;;;12.82;91.20;100704.09;6244266;22;45380;-60
2022/12/29 09:27:53;;;;;;;;;1.67;1.67;;;;;12.78;92.59;100703.41;6245528;22;45355;-59
2022/12/29 09:30:20;;;;;;;;;4.67;1.67;;;;;12.73;92.29;100711.69;6243889;22;58503;-60
2022/12/29 09:32:46;;;;;;;;;1.33;1.00;;;;;12.70;91.68;100721.69;6245299;22;45531;-60
2022/12/29 09:35:13;;;;;;;;;5.00;1.00;;;;;12.71;88.71;100718.94;6245529;22;45303;-60
2022/12/29 09:37:38;;;;;;;;;1.00;1.00;;;;;12.71;91.56;100716.25;6245119;22;45331;-60
2022/12/29 09:40:05;;;;;;;;;5.33;1.00;;;;;12.75;91.51;100724.94;6244498;22;45320;-59
2022/12/29 09:42:30;;;;;;;;;4.00;2.33;;;;;12.75;89.57;100719.63;6244483;22;45291;-59
2022/12/29 09:45:10;;;;;;;;;3.00;2.00;;;;;12.79;89.76;100723.81;6245310;22;46092;-59
2022/12/29 09:47:35;;;;;;;;;2.00;0.00;;;;;12.87;90.98;100736.69;6245789;22;45241;-60
2022/12/29 09:50:23;;;;;;;;;3.33;2.00;;;;;12.94;88.87;100734.50;6244635;22;58002;-59
2022/12/29 09:53:02;;;;;;;;;7.33;4.67;;;;;13.03;86.86;100753.47;6243729;22;45358;-59
2022/12/29 09:55:37;;;;;;;;;3.00;3.00;;;;;13.18;88.28;100748.13;6242421;22;45229;-59
2022/12/29 09:58:06;;;;;;;;;1.67;1.67;;;;;13.35;86.40;100745.28;6243487;22;45197;-59
2022/12/29 10:00:48;;;;;;;;;6.00;3.00;;;;;13.43;85.42;100736.84;6218993;22;45292;-59
2022/12/29 10:03:15;;;;;;;;;7.33;1.67;;;;;13.51;86.44;100747.88;6218696;22;45337;-59
2022/12/29 10:05:53;;;;;;;;;2.33;1.00;;;;;13.57;83.93;100750.19;6245163;22;46511;-59
2022/12/29 10:08:52;;;;;;;;;1.67;1.67;;;;;13.85;77.93;100752.91;6243962;22;45304;-59
2022/12/29 10:11:49;;;;;;;;;3.67;0.00;;;;;14.00;79.66;100764.41;6231140;22;45345;-60
2022/12/29 10:14:39;;;;;;;;;1.00;1.00;;;;;13.99;81.47;100750.19;6223254;22;45318;-59
2022/12/29 10:17:16;;;;;;;;;1.00;1.00;;;;;13.92;82.43;100770.25;6242025;22;46097;-59
2022/12/29 10:20:11;;;;;;;;;6.00;2.00;;;;;13.93;81.46;100765.78;6243613;22;45392;-60
2022/12/29 10:22:51;;;;;;;;;6.67;1.00;;;;;13.79;79.64;100767.50;6243480;22;45985;-60
2022/12/29 10:25:23;;;;;;;;;3.67;2.00;;;;;13.70;82.32;100760.06;6243995;22;45225;-59
2022/12/29 10:27:50;;;;;;;;;3.67;1.00;;;;;13.67;80.72;100770.97;6217044;22;46333;-59
2022/12/29 10:30:16;;;;;;;;;7.33;2.33;;;;;13.65;81.02;100756.84;6243837;22;45327;-60
2022/12/29 10:33:08;;;;;;;;;2.00;2.00;;;;;13.62;81.28;100767.72;6243693;22;45348;-59
2022/12/29 10:35:37;;;;;;;;;5.00;3.67;;;;;13.56;81.50;100761.81;6241407;22;45398;-60
2022/12/29 10:38:35;;;;;;;;;2.00;2.00;;;;;13.54;82.54;100754.84;6243686;22;46187;-61
2022/12/29 10:41:11;;;;;;;;;4.00;2.00;;;;;13.64;82.83;100749.78;6184647;22;45420;-60
2022/12/29 10:43:47;;;;;;;;;4.67;2.67;;;;;13.68;82.16;100752.16;6218732;22;45428;-59
2022/12/29 10:46:15;;;;;;;;;7.00;3.00;;;;;13.69;81.41;100751.22;6245461;22;45458;-60
2022/12/29 10:48:45;;;;;;;;;3.00;3.00;;;;;14.02;83.16;100766.03;6218788;22;45321;-60
2022/12/29 10:51:23;;;;;;;;;4.33;2.67;;;;;15.00;79.84;100757.75;6244838;22;45457;-60
2022/12/29 10:53:55;;;;;;;;;6.67;5.00;;;;;16.20;76.90;100752.81;6245442;22;45376;-61
2022/12/29 10:56:29;;;;;;;;;3.00;3.00;;;;;16.52;75.77;100744.19;6245302;22;45443;-60
2022/12/29 10:58:57;;;;;;;;;6.67;4.00;;;;;16.99;74.48;100749.59;6245232;22;45403;-60
2022/12/29 11:01:27;;;;;;;;;5.33;3.33;;;;;17.44;72.96;100749.63;6245055;22;45475;-60
2022/12/29 11:04:03;;;;;;;;;6.67;3.00;;;;;17.48;66.77;100752.91;6218264;22;45249;-60
2022/12/29 11:06:29;;;;;;;;;2.33;2.00;;;;;17.24;70.64;100750.34;6193109;22;45434;-60
2022/12/29 11:09:24;;;;;;;;;3.33;3.33;;;;;17.30;69.65;100752.53;6244505;22;46246;-60
2022/12/29 11:11:49;;;;;;;;;3.00;3.00;;;;;17.57;67.01;100752.16;6232442;22;45287;-60
2022/12/29 11:14:19;;;;;;;;;2.67;2.67;;;;;17.77;66.67;100755.94;6218710;22;56120;-60
2022/12/29 11:16:56;;;;;;;;;3.33;3.33;;;;;18.15;65.76;100753.81;6245130;22;45592;-61
2022/12/29 11:19:24;;;;;;;;;3.67;1.67;;;;;18.71;63.83;100749.16;6245482;22;46176;-60
2022/12/29 11:21:49;;;;;;;;;2.00;2.00;;;;;18.88;63.20;100751.28;6217173;22;45327;-60
2022/12/29 11:24:26;;;;;;;;;5.33;2.67;;;;;18.51;63.15;100754.41;6245659;22;45376;-62
2022/12/29 11:27:20;;;;;;;;;3.33;1.67;;;;;18.42;60.32;100760.56;6192622;22;45352;-61
2022/12/29 11:29:46;;;;;;;;;5.33;0.67;;;;;17.99;62.50;100764.97;6235668;22;45482;-60
2022/12/29 11:32:23;;;;;;;;;5.00;2.00;;;;;17.95;63.47;100758.13;6244137;22;45745;-60
2022/12/29 11:34:49;;;;;;;;;4.33;2.00;;;;;18.02;63.71;100760.19;6244945;22;45153;-60
2022/12/29 11:37:18;;;;;;;;;4.67;2.33;;;;;17.99;59.89;100764.97;6242746;22;45305;-61
2022/12/29 11:39:56;;;;;;;;;3.33;1.33;;;;;17.62;60.05;100758.03;6210586;22;46038;-61
2022/12/29 11:42:33;;;;;;;;;4.67;3.67;;;;;17.72;63.24;100771.59;6243498;22;45325;-64
2022/12/29 11:45:05;;;;;;;;;4.67;1.67;;;;;17.78;64.50;100762.16;6217253;22;45320;-64
2022/12/29 11:47:32;;;;;;;;;6.67;1.67;;;;;17.65;60.90;100765.00;6237054;22;45468;-66
2022/12/29 11:50:00;;;;;;;;;5.33;4.00;;;;;17.39;63.28;100754.53;6240906;22;47168;-66
2022/12/29 11:52:28;;;;;;;;;3.00;1.67;;;;;17.28;64.42;100758.03;6243503;22;45221;-66
2022/12/29 11:54:54;;;;;;;;;5.67;2.67;;;;;17.28;62.08;100741.91;6214758;22;45392;-63
2022/12/29 11:57:22;;;;;;;;;3.33;1.67;;;;;17.29;64.80;100748.16;6243942;22;45347;-63
2022/12/29 11:59:55;;;;;;;;;2.00;0.67;;;;;17.80;59.91;100746.78;6241648;22;46054;-63
2022/12/29 12:03:00;;;;;;;;;7.00;2.00;;;;;18.15;63.05;100735.81;6216432;22;45424;-62
2022/12/29 12:05:31;;;;;;;;;2.33;2.00;;;;;18.76;61.36;100733.44;6243557;22;45469;-65
2022/12/29 12:08:05;;;;;;;;;5.67;2.67;;;;;18.97;60.22;100736.19;6243563;22;45552;-65
2022/12/29 12:10:44;;;;;;;;;1.67;1.67;;;;;19.06;60.90;100730.00;6216514;22;45471;-64
2022/12/29 12:13:28;;;;;;;;;4.67;2.33;;;;;19.16;58.89;100716.56;6215681;22;45641;-65
2022/12/29 12:16:06;;;;;;;;;2.00;0.50;;;;;18.73;60.01;100720.25;6243888;22;45316;-64
2022/12/29 12:18:39;;;;;;;;;3.00;1.75;;;;;18.83;60.18;100730.09;6244567;22;45384;-63
2022/12/29 12:21:08;;;;;;;;;3.00;1.25;;;;;19.25;54.73;100731.91;6242623;22;47182;-63
2022/12/29 12:24:09;;;;;;;;;7.33;3.00;;;;;19.50;55.06;100736.00;6244959;22;45584;-63
2022/12/29 12:27:02;;;;;;;;;3.50;1.50;;;;;19.55;55.34;100734.75;6210330;22;45384;-64
2022/12/29 12:29:33;;;;;;;;;3.00;2.00;;;;;19.50;56.93;100738.72;6243506;22;45340;-64
2022/12/29 12:32:12;;;;;;;;;3.00;2.25;;;;;19.60;56.79;100735.19;6215306;22;45271;-64
2022/12/29 12:34:42;;;;;;;;;2.33;2.33;;;;;19.57;56.65;100730.06;6217140;22;45404;-63
2022/12/29 12:37:26;;;;;;;;;5.25;2.00;;;;;19.44;56.41;100735.72;6243689;22;45384;-64
2022/12/29 12:39:57;;;;;;;;;3.00;2.50;;;;;19.29;57.96;100733.34;6244237;22;45639;-64
2022/12/29 12:42:25;;;;;;;;;3.50;1.50;;;;;19.17;57.13;100712.88;6215495;22;46892;-64
2022/12/29 12:45:04;;;;;;;;;5.25;1.75;;;;;18.86;57.61;100718.22;6243629;22;45407;-63
2022/12/29 12:48:23;;;;;;;;;4.25;3.00;;;;;18.38;56.85;100724.94;6244206;22;45342;-64
2022/12/29 12:50:58;;;;;;;;;2.50;2.00;;;;;17.82;58.06;100729.53;6118370;23;45895;-63
2022/12/29 12:53:37;;;;;;;;;3.50;2.00;;;;;17.49;58.88;100719.66;6225943;22;46240;-63
2022/12/29 12:56:20;;;;;;;;;1.00;1.00;;;;;17.19;59.91;100715.75;6242175;22;45352;-63
2022/12/29 12:58:58;;;;;;;;;2.75;2.25;;;;;17.01;60.73;100718.94;6244213;22;45340;-64
2022/12/29 13:01:57;;;;;;;;;4.33;3.00;;;;;17.06;60.43;100713.19;6243482;22;45390;-63
2022/12/29 13:04:51;;;;;;;;;3.67;2.33;;;;;16.98;60.59;100723.69;6217586;22;45457;-64
2022/12/29 13:07:41;;;;;;;;;7.33;4.00;;;;;16.77;59.27;100726.19;6216723;22;45353;-64
2022/12/29 13:10:32;;;;;;;;;7.33;3.00;;;;;16.54;60.63;100739.53;6243211;22;45292;-64
2022/12/29 13:13:07;;;;;;;;;4.67;2.33;;;;;16.41;60.99;100726.19;6215831;22;45853;-64
2022/12/29 13:16:11;;;;;;;;;2.00;2.00;;;;;16.21;62.30;100744.66;6244373;22;45301;-64
2022/12/29 13:19:19;;;;;;;;;5.00;2.67;;;;;16.19;62.25;100729.63;6199282;22;45536;-63
2022/12/29 13:21:47;;;;;;;;;4.00;2.00;;;;;16.11;60.87;100734.72;6191481;22;45261;-62
2022/12/29 13:24:32;;;;;;;;;5.67;3.67;;;;;16.03;61.91;100737.97;6244327;22;45423;-64
2022/12/29 13:27:08;;;;;;;;;0.00;0.00;;;;;15.99;61.61;100739.19;6217042;22;45431;-63
2022/12/29 13:29:44;;;;;;;;;2.33;1.33;;;;;15.93;61.72;100745.88;6243828;22;45313;-63
2022/12/29 13:32:09;;;;;;;;;4.00;1.33;;;;;15.88;62.66;100738.13;6244527;22;45221;-63
2022/12/29 13:34:50;;;;;;;;;3.33;1.00;;;;;15.88;59.82;100739.97;6244413;22;45381;-59
2022/12/29 13:37:18;;;;;;;;;3.00;1.00;;;;;15.86;59.26;100741.91;6241780;22;45393;-59
2022/12/29 13:40:01;;;;;;;;;2.00;1.33;;;;;15.66;58.67;100743.34;6238835;22;45610;-59
2022/12/29 13:42:27;;;;;;;;;2.33;0.67;;;;;15.47;60.88;100749.16;6217874;22;45241;-60
2022/12/29 13:45:03;;;;;;;;;2.00;2.00;;;;;15.25;58.49;100744.47;6217050;22;45252;-58
2022/12/29 13:47:37;;;;;;;;;4.67;0.67;;;;;15.02;60.26;100741.59;6217097;22;47142;-59
2022/12/29 13:50:05;;;;;;;;;3.00;1.67;;;;;14.93;61.82;100743.06;6216767;22;45230;-58
2022/12/29 13:53:07;;;;;;;;;6.33;2.00;;;;;14.81;60.50;100741.22;6217381;22;45360;-59
2022/12/29 13:55:39;;;;;;;;;2.00;2.00;;;;;14.65;62.33;100744.97;6244959;22;45301;-59
2022/12/29 13:58:09;;;;;;;;;7.00;2.00;;;;;14.55;62.57;100741.19;6190432;22;47152;-58
2022/12/29 14:00:53;;;;;;;;;4.00;3.33;;;;;14.47;63.04;100744.38;6244970;22;45361;-59
2022/12/29 14:03:50;;;;;;;;;6.00;2.00;;;;;14.36;62.97;100737.03;6218277;22;45659;-59
2022/12/29 14:06:31;;;;;;;;;11.00;2.67;;;;;14.27;64.02;100750.19;6244430;22;45269;-59
2022/12/29 14:09:01;;;;;;;;;4.00;4.00;;;;;14.19;64.06;100756.91;6191061;22;45925;-60
2022/12/29 14:11:33;;;;;;;;;4.33;4.33;;;;;14.14;64.78;100761.69;6217165;22;45218;-59
2022/12/29 14:13:59;;;;;;;;;6.00;3.00;;;;;14.10;64.92;100759.34;6218127;22;45328;-58
2022/12/29 14:16:33;;;;;;;;;5.00;2.00;;;;;14.04;65.31;100758.78;6219145;22;45348;-59
2022/12/29 14:19:40;;;;;;;;;4.33;2.33;;;;;13.94;65.16;100752.31;6218844;22;46134;-58
2022/12/29 14:22:06;;;;;;;;;2.00;2.00;;;;;13.89;65.63;100759.75;6245757;22;45362;-59
2022/12/29 14:24:40;;;;;;;;;2.67;2.33;;;;;13.82;64.70;100758.44;6246143;22;45500;-58
2022/12/29 14:27:11;;;;;;;;;5.33;5.33;;;;;13.75;66.15;100762.47;6245524;22;45327;-58
2022/12/29 14:29:39;;;;;;;;;6.00;3.00;;;;;13.70;66.44;100757.41;6245769;22;46841;-59
2022/12/29 14:32:20;;;;;;;;;5.67;4.00;;;;;13.68;66.59;100767.34;6245139;22;45427;-59
2022/12/29 14:34:46;;;;;;;;;9.33;6.00;;;;;13.66;66.50;100761.22;6245876;22;45384;-59
2022/12/29 14:37:34;;;;;;;;;6.00;5.33;;;;;13.67;66.75;100763.81;6246197;22;45316;-59
2022/12/29 14:40:25;;;;;;;;;8.67;5.67;;;;;13.67;66.82;100758.44;6244302;22;46153;-59
2022/12/29 14:42:53;;;;;;;;;5.67;4.33;;;;;13.67;67.18;100752.25;6244335;22;45249;-59
2022/12/29 14:45:18;;;;;;;;;4.00;4.00;;;;;13.63;66.45;100754.25;6246130;22;45369;-59
2022/12/29 14:47:47;;;;;;;;;7.00;4.00;;;;;13.58;66.96;100767.06;6245414;22;45210;-59
2022/12/29 14:50:14;;;;;;;;;5.00;5.00;;;;;13.51;67.23;100765.75;6244436;22;46176;-59
2022/12/29 14:52:53;;;;;;;;;3.33;3.33;;;;;13.46;66.08;100762.50;6245911;22;45399;-59
2022/12/29 14:55:41;;;;;;;;;7.33;5.00;;;;;13.36;66.53;100757.75;6245107;22;45423;-59
2022/12/29 14:58:25;;;;;;;;;5.33;3.33;;;;;13.28;66.79;100754.63;6244366;22;45407;-59
2022/12/29 15:00:50;;;;;;;;;4.33;4.33;;;;;13.21;67.24;100764.00;6245225;22;46304;-59
2022/12/29 15:03:23;;;;;;;;;10.67;7.67;;;;;13.16;67.35;100764.25;6245888;22;45340;-59
2022/12/29 15:05:54;;;;;;;;;8.33;7.00;;;;;13.12;67.32;100765.41;6243155;22;45361;-59
2022/12/29 15:08:31;;;;;;;;;8.67;6.67;;;;;13.10;67.59;100777.13;6218561;22;45350;-59
2022/12/29 15:11:01;;;;;;;;;6.00;5.33;;;;;13.08;67.26;100779.91;6218369;22;45693;-58
2022/12/29 15:13:39;;;;;;;;;7.00;4.00;;;;;13.06;67.12;100779.13;6218354;22;45301;-59
2022/12/29 15:16:05;;;;;;;;;4.00;2.67;;;;;13.01;66.64;100778.56;6243453;22;45211;-59
2022/12/29 15:18:32;;;;;;;;;4.33;3.00;;;;;12.98;66.58;100790.28;6217464;22;45439;-58
2022/12/29 15:21:04;;;;;;;;;4.00;3.00;;;;;12.96;67.04;100786.84;6244696;22;46035;-59
2022/12/29 15:23:31;;;;;;;;;6.00;3.00;;;;;12.94;66.71;100794.09;6245167;22;45341;-60
2022/12/29 15:25:59;;;;;;;;;3.00;3.00;;;;;12.91;66.31;100799.63;6245056;22;45697;-59
2022/12/29 15:28:27;;;;;;;;;11.00;3.00;;;;;12.87;66.44;100806.94;6217742;22;45849;-58
2022/12/29 15:31:04;;;;;;;;;4.67;4.00;;;;;12.83;66.58;100807.22;6243980;22;45296;-58
2022/12/29 15:33:30;;;;;;;;;4.00;4.00;;;;;12.78;66.42;100801.31;6217937;22;45344;-58
2022/12/29 15:36:02;;;;;;;;;4.00;4.00;;;;;12.72;66.39;100803.38;6244379;22;57541;-58
2022/12/29 15:38:29;;;;;;;;;6.33;5.00;;;;;12.67;66.57;100794.78;6218626;22;45563;-58
2022/12/29 15:41:04;;;;;;;;;9.00;7.00;;;;;12.64;65.98;100808.28;6245316;22;45265;-58
2022/12/29 15:43:35;;;;;;;;;5.33;3.33;;;;;12.58;65.67;100814.00;6218597;22;45346;-59
2022/12/29 15:46:02;;;;;;;;;6.67;3.00;;;;;12.52;66.24;100815.22;6245108;22;45305;-58
2022/12/29 15:48:27;;;;;;;;;6.00;5.00;;;;;12.48;66.67;100821.69;6245458;22;45301;-58
2022/12/29 15:50:53;;;;;;;;;6.33;6.33;;;;;12.45;66.80;100815.66;6244600;22;56586;-58
2022/12/29 15:53:30;;;;;;;;;7.33;7.33;;;;;12.40;66.58;100814.13;6245112;22;45198;-59
2022/12/29 15:56:00;;;;;;;;;7.67;4.67;;;;;12.35;66.22;100818.84;6244933;22;45427;-58
2022/12/29 15:58:29;;;;;;;;;6.00;3.67;;;;;12.31;65.85;100824.47;6245863;22;45300;-58
2022/12/29 16:00:58;;;;;;;;;5.00;3.33;;;;;12.27;66.50;100822.91;6242126;22;45414;-58
2022/12/29 16:03:25;;;;;;;;;5.00;4.00;;;;;12.23;66.36;100823.06;6217850;22;45265;-59
2022/12/29 16:05:57;;;;;;;;;4.67;4.67;;;;;12.18;66.61;100826.97;6217695;22;45329;-59
2022/12/29 16:08:33;;;;;;;;;4.67;4.67;;;;;12.15;66.44;100827.13;6217322;22;45284;-59
2022/12/29 16:11:00;;;;;;;;;5.67;2.67;;;;;12.10;66.06;100826.50;6244338;22;47003;-59
2022/12/29 16:13:35;;;;;;;;;8.33;4.00;;;;;12.06;66.80;100826.69;6219164;22;45285;-58
2022/12/29 16:16:31;;;;;;;;;5.67;4.00;;;;;12.03;67.01;100834.00;6192747;22;45330;-59
2022/12/29 16:18:57;;;;;;;;;5.67;4.67;;;;;11.99;66.75;100829.78;6231565;22;45162;-58
2022/12/29 16:21:34;;;;;;;;;12.33;8.00;;;;;11.97;67.05;100837.88;6217802;22;45289;-59
2022/12/29 16:24:14;;;;;;;;;8.00;6.00;;;;;11.94;66.99;100848.66;6218312;22;45318;-59
2022/12/29 16:26:49;;;;;;;;;0.67;0.33;;;;;11.92;66.97;100845.22;6214387;22;45744;-59
2022/12/29 16:29:14;;;;;;;;;2.33;2.33;;;;;11.89;67.04;100856.91;6214945;22;45275;-58
2022/12/29 16:31:59;;;;;;;;;8.67;5.33;;;;;11.86;67.18;100856.22;6242217;22;63308;-58
2022/12/29 16:34:33;;;;;;;;;6.00;2.00;;;;;11.84;67.43;100858.97;6244557;22;45399;-58
2022/12/29 16:37:18;;;;;;;;;3.33;3.00;;;;;11.80;67.48;100860.09;6243833;22;45215;-59
2022/12/29 16:39:44;;;;;;;;;5.00;4.00;;;;;11.78;66.79;100853.13;6242379;22;45609;-58
2022/12/29 16:42:40;;;;;;;;;5.33;3.00;;;;;11.72;67.15;100857.84;6215541;22;57590;-59
2022/12/29 16:45:23;;;;;;;;;6.33;2.33;;;;;11.68;67.30;100868.72;6244803;22;45315;-58
2022/12/29 16:48:27;;;;;;;;;6.33;5.00;;;;;11.64;67.78;100876.03;6244915;22;45382;-59
2022/12/29 16:51:01;;;;;;;;;6.00;2.00;;;;;11.61;67.86;100870.84;6243453;22;45435;-59
2022/12/29 16:53:33;;;;;;;;;9.67;4.33;;;;;11.59;67.93;100878.09;6245331;22;45682;-59
2022/12/29 16:56:03;;;;;;;;;2.67;2.67;;;;;11.57;68.11;100888.81;6244832;22;45379;-58
2022/12/29 16:58:31;;;;;;;;;4.33;3.00;;;;;11.55;68.06;100887.16;6218656;22;45230;-58
2022/12/29 17:00:58;;;;;;;;;9.00;4.00;;;;;11.53;68.31;100883.75;6244156;22;45376;-58
2022/12/29 17:03:31;;;;;;;;;9.00;4.67;;;;;11.52;68.53;100904.16;6243974;22;46815;-58
2022/12/29 17:05:56;;;;;;;;;9.00;5.00;;;;;11.51;68.66;100904.25;6218272;22;45410;-59
2022/12/29 17:08:25;;;;;;;;;11.00;5.00;;;;;11.49;68.43;100906.16;6246264;22;45272;-59
2022/12/29 17:13:39;;;;;;;;;8.00;5.00;;;;;11.47;68.96;100921.34;6245416;22;45317;-59
2022/12/29 17:16:09;;;;;;;;;6.67;4.67;;;;;11.45;69.17;100926.75;6244568;22;45284;-59
2022/12/29 17:18:34;;;;;;;;;11.00;6.33;;;;;11.44;69.09;100926.84;6245015;22;45303;-59
2022/12/29 17:21:00;;;;;;;;;9.00;6.00;;;;;11.43;69.26;100933.94;6244764;22;45573;-57